Time;durP1;ratioP1;P1;durP2;ratioP2;P2;SDS_P1;SDS_P2;PMS_P1;PMS_P2;Temp;Humidity;BMP_temperature;BMP_pressure;BME280_temperature;BME280_humidity;BME280_pressure;Samples;Min_cycle;Max_cycle;Signal;HPM_P1;HPM_P2
2022/06/21 00:01:28;;;;;;;0.32;0.28;;;13.70;67.10;;;;;;5017727;28;20043;-76
2022/06/21 00:03:54;;;;;;;0.20;0.20;;;13.70;67.20;;;;;;5020418;28;20552;-77
2022/06/21 00:06:23;;;;;;;0.15;0.15;;;13.70;67.40;;;;;;5001376;28;20060;-78
2022/06/21 00:08:50;;;;;;;0.20;0.20;;;13.60;67.50;;;;;;4979632;28;20038;-78
2022/06/21 00:11:24;;;;;;;0.40;0.32;;;13.50;67.40;;;;;;5012359;28;20116;-77
2022/06/21 00:13:50;;;;;;;0.30;0.30;;;13.50;67.50;;;;;;5017457;28;20113;-79
2022/06/21 00:16:16;;;;;;;0.30;0.30;;;13.50;67.50;;;;;;4982560;28;20496;-78
2022/06/21 00:18:44;;;;;;;0.20;0.20;;;13.60;67.60;;;;;;5013772;28;20037;-78
2022/06/21 00:21:22;;;;;;;0.20;0.20;;;13.50;67.60;;;;;;5013040;28;20034;-79
2022/06/21 00:23:50;;;;;;;0.30;0.30;;;13.50;67.70;;;;;;4995940;28;20066;-77
2022/06/21 00:26:18;;;;;;;0.20;0.20;;;13.50;67.70;;;;;;4995477;28;20490;-78
2022/06/21 00:28:43;;;;;;;0.32;0.32;;;13.50;67.70;;;;;;5012185;28;20386;-77
2022/06/21 00:31:18;;;;;;;0.28;0.25;;;13.30;67.80;;;;;;4975633;28;20057;-78
2022/06/21 00:34:01;;;;;;;0.25;0.25;;;13.40;68.00;;;;;;5013272;28;20120;-81
2022/06/21 00:36:32;;;;;;;0.20;0.20;;;13.40;68.00;;;;;;4953355;28;20066;-78
2022/06/21 00:39:00;;;;;;;0.25;0.20;;;13.40;68.00;;;;;;4972910;28;20106;-76
2022/06/21 00:41:41;;;;;;;0.30;0.30;;;13.30;68.00;;;;;;4970829;28;20185;-75
2022/06/21 00:44:13;;;;;;;0.30;0.30;;;13.30;68.20;;;;;;4971083;28;20126;-76
2022/06/21 00:46:44;;;;;;;0.30;0.30;;;13.30;68.20;;;;;;4972120;28;20043;-75
2022/06/21 00:49:21;;;;;;;0.32;0.30;;;13.20;68.30;;;;;;4960866;28;20038;-77
2022/06/21 00:51:49;;;;;;;0.47;0.30;;;13.20;68.50;;;;;;4957458;28;20034;-80
2022/06/21 00:54:23;;;;;;;0.88;0.50;;;13.10;68.50;;;;;;4923903;28;20039;-76
2022/06/21 00:56:56;;;;;;;0.98;0.38;;;13.10;68.60;;;;;;4971839;28;20057;-76
2022/06/21 00:59:27;;;;;;;0.43;0.40;;;13.20;68.80;;;;;;4955116;28;20090;-76
2022/06/21 01:02:05;;;;;;;0.25;0.25;;;13.10;68.80;;;;;;4938005;28;20403;-77
2022/06/21 01:04:45;;;;;;;0.85;0.40;;;13.00;68.90;;;;;;4941363;28;20053;-77
2022/06/21 01:07:15;;;;;;;0.60;0.40;;;12.90;69.00;;;;;;4949381;28;20046;-77
2022/06/21 01:09:51;;;;;;;0.30;0.30;;;13.00;69.10;;;;;;4983990;28;20285;-77
2022/06/21 01:12:25;;;;;;;0.85;0.35;;;12.80;69.20;;;;;;4965677;28;20033;-76
2022/06/21 01:15:00;;;;;;;0.55;0.30;;;12.90;69.40;;;;;;4967513;28;20042;-78
2022/06/21 01:17:32;;;;;;;1.23;0.30;;;12.80;69.40;;;;;;4966367;28;20100;-78
2022/06/21 01:20:02;;;;;;;0.30;0.30;;;12.80;69.40;;;;;;4965093;28;20037;-78
2022/06/21 01:23:04;;;;;;;0.22;0.22;;;12.70;69.40;;;;;;4963274;28;20096;-77
2022/06/21 01:26:01;;;;;;;0.50;0.30;;;12.70;69.70;;;;;;4984047;28;20084;-77
2022/06/21 01:28:27;;;;;;;0.47;0.30;;;12.60;69.60;;;;;;4965538;28;20049;-77
2022/06/21 01:30:57;;;;;;;0.32;0.30;;;12.70;69.60;;;;;;4964844;28;20497;-77
2022/06/21 01:33:33;;;;;;;0.35;0.30;;;12.60;69.60;;;;;;5018414;28;20038;-77
2022/06/21 01:36:05;;;;;;;0.20;0.20;;;12.60;69.80;;;;;;5017935;28;20108;-77
2022/06/21 01:38:38;;;;;;;0.40;0.40;;;12.60;69.80;;;;;;4999915;28;20113;-77
2022/06/21 01:41:09;;;;;;;0.30;0.30;;;12.50;69.90;;;;;;5017962;28;20030;-77
2022/06/21 01:43:41;;;;;;;0.43;0.30;;;12.50;70.00;;;;;;5016983;28;20106;-77
2022/06/21 01:46:10;;;;;;;0.85;0.47;;;12.50;70.10;;;;;;4998447;28;20038;-77
2022/06/21 01:48:42;;;;;;;0.43;0.40;;;12.50;70.10;;;;;;5000463;28;20034;-77
2022/06/21 01:51:15;;;;;;;0.47;0.38;;;12.50;70.10;;;;;;5018277;28;20042;-77
2022/06/21 01:53:41;;;;;;;1.10;0.30;;;12.40;70.00;;;;;;5017614;28;20092;-77
2022/06/21 01:56:12;;;;;;;0.88;0.40;;;12.50;70.10;;;;;;5017212;28;20077;-77
2022/06/21 01:58:45;;;;;;;0.30;0.30;;;12.50;70.10;;;;;;5000840;28;20486;-77
2022/06/21 02:01:26;;;;;;;0.22;0.20;;;12.50;70.10;;;;;;5017016;28;20053;-77
2022/06/21 02:03:53;;;;;;;;;;;12.50;70.10;;;;;;5015538;28;20072;-77
2022/06/21 02:06:22;;;;;;;0.25;0.25;;;12.40;70.00;;;;;;5017962;28;20036;-77
2022/06/21 02:08:53;;;;;;;0.38;0.30;;;12.40;70.00;;;;;;5000524;28;20034;-77
2022/06/21 02:11:35;;;;;;;0.22;0.22;;;12.30;70.20;;;;;;5017747;28;20030;-77
2022/06/21 02:16:47;;;;;;;0.47;0.40;;;12.30;70.40;;;;;;5017711;28;20829;-77
2022/06/21 02:19:26;;;;;;;0.47;0.30;;;12.20;70.40;;;;;;5018751;28;20460;-77
2022/06/21 02:21:51;;;;;;;0.30;0.30;;;12.20;70.60;;;;;;5017700;28;20048;-77
2022/06/21 02:24:17;;;;;;;0.73;0.40;;;12.10;70.60;;;;;;5016646;28;20050;-77
2022/06/21 02:26:44;;;;;;;0.30;0.30;;;12.10;70.80;;;;;;4998806;28;20057;-77
2022/06/21 02:29:13;;;;;;;1.02;0.30;;;12.00;70.80;;;;;;5018134;28;20113;-77
2022/06/21 02:31:39;;;;;;;0.28;0.20;;;12.00;71.00;;;;;;5017944;28;20089;-77
2022/06/21 02:34:11;;;;;;;0.30;0.30;;;12.00;71.10;;;;;;5001799;28;20550;-77
2022/06/21 02:36:46;;;;;;;0.40;0.40;;;12.00;71.20;;;;;;5020723;28;20042;-77
2022/06/21 02:39:18;;;;;;;0.30;0.30;;;11.90;71.10;;;;;;5018688;28;20547;-77
2022/06/21 02:41:50;;;;;;;0.20;0.20;;;11.90;71.20;;;;;;5001271;28;20034;-77
2022/06/21 02:44:38;;;;;;;0.25;0.25;;;11.90;71.10;;;;;;5001976;28;20057;-77
2022/06/21 02:47:12;;;;;;;0.40;0.40;;;11.90;71.30;;;;;;5001395;28;20038;-77
2022/06/21 02:49:47;;;;;;;0.20;0.20;;;11.80;71.20;;;;;;5019448;28;20053;-77
2022/06/21 02:52:26;;;;;;;0.30;0.30;;;11.80;71.20;;;;;;5016012;28;20056;-77
2022/06/21 02:54:59;;;;;;;0.32;0.30;;;11.80;71.40;;;;;;5017115;28;20398;-77
2022/06/21 02:57:34;;;;;;;0.30;0.30;;;11.80;71.40;;;;;;5016857;28;20060;-77
2022/06/21 03:00:03;;;;;;;0.40;0.40;;;11.70;71.40;;;;;;4999692;28;20030;-77
2022/06/21 03:02:32;;;;;;;0.45;0.30;;;11.80;71.50;;;;;;5015996;28;20120;-77
2022/06/21 03:05:03;;;;;;;0.30;0.30;;;11.80;71.50;;;;;;5015988;28;20124;-77
2022/06/21 03:07:33;;;;;;;0.17;0.17;;;11.80;71.60;;;;;;5016410;28;20485;-77
2022/06/21 03:09:59;;;;;;;0.45;0.28;;;11.80;71.50;;;;;;5016084;28;20042;-77
2022/06/21 03:12:29;;;;;;;0.63;0.40;;;11.80;71.50;;;;;;5016470;28;20084;-77
2022/06/21 03:14:59;;;;;;;0.20;0.20;;;11.80;71.50;;;;;;5016071;28;20046;-77
2022/06/21 03:17:41;;;;;;;0.25;0.25;;;11.80;71.60;;;;;;4997866;28;20383;-77
2022/06/21 03:20:14;;;;;;;0.20;0.20;;;11.80;71.60;;;;;;5016179;28;20898;-77
2022/06/21 03:22:42;;;;;;;0.40;0.40;;;11.80;71.60;;;;;;5016132;28;20036;-77
2022/06/21 03:25:25;;;;;;;0.95;0.40;;;11.90;71.70;;;;;;4997323;28;20037;-77
2022/06/21 03:27:55;;;;;;;0.43;0.30;;;11.80;71.60;;;;;;5012696;28;20050;-77
2022/06/21 03:30:25;;;;;;;1.10;0.32;;;11.80;71.60;;;;;;5015586;28;20065;-77
2022/06/21 03:32:54;;;;;;;0.25;0.25;;;11.90;71.60;;;;;;5015007;28;20056;-77
2022/06/21 03:35:20;;;;;;;0.63;0.38;;;11.90;71.70;;;;;;5014618;28;20042;-77
2022/06/21 03:37:47;;;;;;;0.63;0.35;;;11.90;71.70;;;;;;5015752;28;20042;-77
2022/06/21 03:42:55;;;;;;;1.50;0.30;;;12.00;71.80;;;;;;4999003;28;20048;-77
2022/06/21 03:45:31;;;;;;;0.40;0.40;;;11.90;71.80;;;;;;4981376;28;20062;-77
2022/06/21 03:48:17;;;;;;;2.30;0.40;;;12.00;71.90;;;;;;5015614;28;20062;-77
2022/06/21 03:50:53;;;;;;;1.38;0.40;;;11.90;71.80;;;;;;5014749;28;20371;-77
2022/06/21 03:53:26;;;;;;;0.82;0.50;;;11.90;71.80;;;;;;5014988;28;20433;-77
2022/06/21 03:56:03;;;;;;;0.30;0.30;;;12.10;71.90;;;;;;5014728;28;20030;-77
2022/06/21 03:58:49;;;;;;;0.40;0.40;;;12.00;71.90;;;;;;5012818;28;20037;-77
2022/06/21 04:01:25;;;;;;;0.35;0.30;;;12.00;72.00;;;;;;4995734;28;20478;-77
2022/06/21 04:04:01;;;;;;;0.95;0.40;;;12.00;72.00;;;;;;5013043;28;20129;-77
2022/06/21 04:06:41;;;;;;;1.13;0.60;;;11.90;71.90;;;;;;5013665;28;20042;-77
2022/06/21 04:09:16;;;;;;;0.40;0.40;;;11.90;72.00;;;;;;4996494;28;20030;-77
2022/06/21 04:11:55;;;;;;;0.40;0.40;;;12.00;72.20;;;;;;5013809;28;20397;-77
2022/06/21 04:14:46;;;;;;;0.40;0.40;;;11.90;72.20;;;;;;5013142;28;20112;-77
2022/06/21 04:17:37;;;;;;;1.10;0.40;;;11.90;72.20;;;;;;4995502;28;20034;-77
2022/06/21 04:20:17;;;;;;;0.47;0.45;;;11.80;72.20;;;;;;5015654;28;20041;-77
2022/06/21 04:22:52;;;;;;;1.05;0.30;;;12.00;72.20;;;;;;4994806;28;20401;-77
2022/06/21 04:25:35;;;;;;;0.47;0.47;;;12.00;72.20;;;;;;5014426;28;20054;-77
2022/06/21 04:28:15;;;;;;;0.55;0.40;;;11.90;72.20;;;;;;4997536;28;20042;-77
2022/06/21 04:30:50;;;;;;;0.50;0.38;;;12.00;72.30;;;;;;4996499;28;20046;-77
2022/06/21 04:33:23;;;;;;;0.30;0.30;;;12.10;72.20;;;;;;4981519;28;20046;-77
2022/06/21 04:35:55;;;;;;;0.40;0.40;;;12.10;72.30;;;;;;4993698;28;20050;-77
2022/06/21 04:38:32;;;;;;;0.35;0.35;;;12.10;72.30;;;;;;4993867;28;20045;-77
2022/06/21 04:41:07;;;;;;;0.60;0.40;;;12.10;72.40;;;;;;4998174;28;20038;-77
2022/06/21 04:43:46;;;;;;;2.03;0.60;;;12.10;72.30;;;;;;5016066;28;20042;-77
2022/06/21 04:46:23;;;;;;;0.38;0.38;;;12.20;72.40;;;;;;4999224;28;20536;-77
2022/06/21 04:49:08;;;;;;;0.50;0.50;;;12.20;72.30;;;;;;5018066;28;20038;-77
2022/06/21 04:51:53;;;;;;;0.65;0.45;;;12.20;72.20;;;;;;5013054;28;20038;-77
2022/06/21 04:54:24;;;;;;;0.75;0.40;;;12.30;72.20;;;;;;5000000;28;20474;-77
2022/06/21 04:56:55;;;;;;;;;;;12.40;72.20;;;;;;5013533;28;20096;-77
2022/06/21 04:59:36;;;;;;;1.05;0.40;;;12.40;72.00;;;;;;5018262;28;19913;-77
2022/06/21 05:02:04;;;;;;;0.30;0.30;;;12.50;71.80;;;;;;5019601;28;20100;-77
2022/06/21 05:04:37;;;;;;;1.30;0.30;;;12.60;71.50;;;;;;5019424;28;20489;-77
2022/06/21 05:07:09;;;;;;;0.32;0.30;;;12.70;71.60;;;;;;5002071;28;20041;-77
2022/06/21 05:09:35;;;;;;;0.30;0.25;;;12.80;71.40;;;;;;5020709;28;20053;-77
2022/06/21 05:12:34;;;;;;;1.00;0.30;;;12.90;71.30;;;;;;5016848;28;20042;-77
2022/06/21 05:15:07;;;;;;;0.20;0.20;;;13.10;71.20;;;;;;5016049;28;20041;-77
2022/06/21 05:17:34;;;;;;;0.73;0.50;;;13.20;71.00;;;;;;5017201;28;20045;-77
2022/06/21 05:20:05;;;;;;;0.32;0.32;;;13.30;70.80;;;;;;5003221;28;20042;-77
2022/06/21 05:22:39;;;;;;;0.20;0.20;;;13.50;70.60;;;;;;5011505;28;20074;-77
2022/06/21 05:25:25;;;;;;;0.40;0.40;;;13.70;70.50;;;;;;5032836;28;20126;-77
2022/06/21 05:27:59;;;;;;;0.90;0.50;;;13.80;70.20;;;;;;5011173;28;20037;-77
2022/06/21 05:30:36;;;;;;;0.30;0.30;;;14.00;70.00;;;;;;5013032;28;20049;-77
2022/06/21 05:33:11;;;;;;;0.30;0.30;;;14.10;69.80;;;;;;5005209;28;20064;-79
2022/06/21 05:35:37;;;;;;;0.52;0.38;;;14.30;69.70;;;;;;4996193;28;20458;-79
2022/06/21 05:38:07;;;;;;;0.30;0.30;;;14.40;69.50;;;;;;4980081;28;20489;-79
2022/06/21 05:40:56;;;;;;;0.22;0.22;;;14.50;69.40;;;;;;4996947;28;20052;-79
2022/06/21 05:43:38;;;;;;;0.77;0.30;;;14.60;69.40;;;;;;5013850;28;20072;-79
2022/06/21 05:46:15;;;;;;;0.30;0.30;;;14.70;69.50;;;;;;5014087;28;20073;-79
2022/06/21 05:48:42;;;;;;;0.40;0.20;;;14.80;69.40;;;;;;4995375;28;20093;-79
2022/06/21 05:51:16;;;;;;;0.32;0.32;;;14.90;69.40;;;;;;4980223;28;20064;-79
2022/06/21 05:53:48;;;;;;;0.50;0.40;;;15.00;69.30;;;;;;5013889;28;20038;-79
2022/06/21 05:56:19;;;;;;;0.30;0.30;;;15.00;69.20;;;;;;4995078;28;20049;-79
2022/06/21 05:58:50;;;;;;;0.30;0.30;;;15.00;69.30;;;;;;4996513;28;20034;-79
2022/06/21 06:01:30;;;;;;;0.45;0.30;;;15.10;69.30;;;;;;5013912;28;20099;-78
2022/06/21 06:04:06;;;;;;;1.05;0.32;;;15.10;69.40;;;;;;4996249;28;20046;-77
2022/06/21 06:06:36;;;;;;;0.20;0.20;;;15.20;69.40;;;;;;4979595;28;20501;-79
2022/06/21 06:09:09;;;;;;;0.50;0.50;;;15.20;69.40;;;;;;4997728;28;20045;-78
2022/06/21 06:11:58;;;;;;;0.90;0.40;;;15.30;69.40;;;;;;4997587;28;20046;-78
2022/06/21 06:14:34;;;;;;;0.22;0.22;;;15.30;69.30;;;;;;5015156;28;20045;-78
2022/06/21 06:17:06;;;;;;;0.30;0.20;;;15.40;69.30;;;;;;4995731;28;20054;-78
2022/06/21 06:19:38;;;;;;;0.30;0.30;;;15.50;69.10;;;;;;5016152;28;20061;-78
2022/06/21 06:22:21;;;;;;;0.50;0.40;;;15.60;69.10;;;;;;4995444;28;20041;-79
2022/06/21 06:25:02;;;;;;;0.38;0.30;;;15.70;69.00;;;;;;5015728;28;20038;-77
2022/06/21 06:27:47;;;;;;;0.30;0.30;;;15.70;68.90;;;;;;4979616;28;20112;-78
2022/06/21 06:30:18;;;;;;;0.63;0.35;;;15.90;68.80;;;;;;5013257;28;20482;-78
2022/06/21 06:32:58;;;;;;;0.77;0.30;;;16.00;68.70;;;;;;5013714;28;20093;-77
2022/06/21 06:35:25;;;;;;;0.50;0.30;;;16.10;68.40;;;;;;5013331;28;20394;-77
2022/06/21 06:37:52;;;;;;;0.65;0.32;;;16.20;68.40;;;;;;5013224;28;20030;-76
2022/06/21 06:40:24;;;;;;;0.47;0.30;;;16.30;68.20;;;;;;5014465;28;20038;-75
2022/06/21 06:42:58;;;;;;;0.40;0.40;;;16.50;68.00;;;;;;4997932;28;20034;-75
2022/06/21 06:45:29;;;;;;;0.95;0.35;;;16.60;67.70;;;;;;4996963;28;20560;-76
2022/06/21 06:48:03;;;;;;;0.30;0.30;;;16.70;67.60;;;;;;5000632;28;20148;-75
2022/06/21 06:50:43;;;;;;;0.20;0.20;;;16.80;67.50;;;;;;4997731;28;20034;-74
2022/06/21 06:53:40;;;;;;;0.30;0.25;;;16.90;67.40;;;;;;5013469;28;20041;-74
2022/06/21 07:03:22;;;;;;;0.38;0.30;;;17.30;67.10;;;;;;4823917;29;20050;-74
2022/06/21 07:10:22;;;;;;;0.68;0.40;;;17.70;66.70;;;;;;4841724;29;20081;-76
2022/06/21 07:13:23;;;;;;;0.93;0.30;;;17.90;66.40;;;;;;4772726;30;20129;-74
2022/06/21 07:22:43;;;;;;;0.73;0.32;;;18.30;66.50;;;;;;4758482;30;20048;-76
2022/06/21 07:25:33;;;;;;;0.30;0.30;;;18.40;66.40;;;;;;4720786;30;20053;-74
2022/06/21 07:32:18;;;;;;;0.52;0.30;;;18.60;66.20;;;;;;4645049;30;20440;-74
2022/06/21 07:34:58;;;;;;;0.65;0.40;;;18.80;66.10;;;;;;4661594;30;20182;-74
2022/06/21 07:37:41;;;;;;;0.95;0.30;;;18.90;66.00;;;;;;4699360;30;20059;-74
2022/06/21 07:48:17;;;;;;;0.30;0.30;;;19.20;66.10;;;;;;4658801;30;20068;-75
2022/06/21 08:08:47;;;;;;;0.22;0.20;;;20.20;65.20;;;;;;4749090;29;19973;-75
2022/06/21 08:14:26;;;;;;;0.70;0.30;;;20.60;64.50;;;;;;4848147;29;20042;-76
2022/06/21 08:20:08;;;;;;;0.55;0.43;;;20.70;64.50;;;;;;4849094;29;20073;-75
2022/06/21 08:22:47;;;;;;;0.28;0.28;;;21.00;64.00;;;;;;4806957;29;20139;-76
2022/06/21 08:25:26;;;;;;;0.28;0.28;;;20.90;63.90;;;;;;4811006;29;20042;-75
2022/06/21 08:28:01;;;;;;;0.30;0.30;;;20.80;64.30;;;;;;4853627;29;20092;-74
2022/06/21 08:30:52;;;;;;;0.95;0.38;;;21.00;65.40;;;;;;4812692;29;20038;-76
2022/06/21 08:33:32;;;;;;;0.40;0.40;;;21.10;64.30;;;;;;4859432;29;20030;-76
2022/06/21 08:36:14;;;;;;;0.30;0.30;;;21.10;63.90;;;;;;4810942;29;20050;-75
2022/06/21 08:39:04;;;;;;;0.38;0.38;;;21.30;64.30;;;;;;4816655;29;20045;-76
2022/06/21 08:41:55;;;;;;;3.10;0.63;;;21.50;63.10;;;;;;4856771;29;20048;-76
2022/06/21 08:48:06;;;;;;;0.22;0.22;;;22.00;62.70;;;;;;4928676;29;20051;-75
2022/06/21 08:50:58;;;;;;;0.35;0.30;;;22.20;62.20;;;;;;4923264;29;20574;-76
2022/06/21 09:04:04;;;;;;;0.20;0.20;;;22.40;61.90;;;;;;4907073;29;20075;-75
2022/06/21 09:06:57;;;;;;;0.20;0.20;;;22.60;61.70;;;;;;4931891;29;20047;-74
2022/06/21 09:09:44;;;;;;;0.35;0.30;;;22.90;61.10;;;;;;4918812;29;20043;-74
2022/06/21 09:12:35;;;;;;;0.30;0.30;;;23.00;60.70;;;;;;4933893;29;20063;-75
2022/06/21 09:15:08;;;;;;;;;;;22.90;60.90;;;;;;4931831;29;20118;-74
2022/06/21 09:21:40;;;;;;;0.20;0.20;;;23.00;60.90;;;;;;4926377;29;20439;-76
2022/06/21 09:24:19;;;;;;;0.23;0.20;;;23.00;60.70;;;;;;4901608;29;20048;-74
2022/06/21 09:27:04;;;;;;;0.20;0.20;;;22.80;60.70;;;;;;4933808;29;20323;-74
2022/06/21 09:29:36;;;;;;;0.20;0.20;;;22.80;60.80;;;;;;4954827;28;20030;-75
2022/06/21 09:32:17;;;;;;;0.20;0.20;;;23.10;60.60;;;;;;4996699;28;20530;-75
2022/06/21 09:34:59;;;;;;;0.32;0.30;;;23.30;60.00;;;;;;4997763;28;20046;-74
2022/06/21 09:37:49;;;;;;;0.65;0.30;;;23.50;59.40;;;;;;5011611;28;20512;-75
2022/06/21 09:40:29;;;;;;;0.20;0.20;;;23.30;59.50;;;;;;4979964;28;20022;-74
2022/06/21 09:43:12;;;;;;;0.20;0.20;;;23.20;60.30;;;;;;4980194;28;20370;-75
2022/06/21 09:46:10;;;;;;;0.38;0.20;;;23.10;59.90;;;;;;4972723;28;20046;-75
2022/06/21 09:48:57;;;;;;;0.20;0.20;;;22.80;60.00;;;;;;4956770;28;20046;-75
2022/06/21 09:54:41;;;;;;;0.30;0.30;;;22.50;60.60;;;;;;4954091;28;20081;-73
2022/06/21 09:57:40;;;;;;;0.20;0.20;;;22.40;60.60;;;;;;4937602;28;20043;-73
2022/06/21 10:00:40;;;;;;;0.20;0.20;;;22.40;60.50;;;;;;4875029;29;20498;-75
2022/06/21 10:03:35;;;;;;;0.20;0.20;;;22.50;60.30;;;;;;4849115;29;20045;-76
2022/06/21 10:06:11;;;;;;;0.28;0.20;;;22.70;59.80;;;;;;4859947;29;20089;-74
2022/06/21 10:09:08;;;;;;;0.22;0.20;;;22.70;59.60;;;;;;4831946;29;20044;-74
2022/06/21 10:12:08;;;;;;;0.28;0.28;;;22.70;59.40;;;;;;4883141;29;20153;-75
2022/06/21 10:15:11;;;;;;;0.20;0.20;;;22.70;59.20;;;;;;4896264;29;20036;-75
2022/06/21 10:18:04;;;;;;;0.30;0.30;;;22.80;59.00;;;;;;4883362;29;20131;-74
2022/06/21 10:21:04;;;;;;;0.30;0.30;;;22.90;58.90;;;;;;4896703;29;20044;-75
2022/06/21 10:23:51;;;;;;;0.23;0.20;;;22.90;58.70;;;;;;4880903;29;20044;-75
2022/06/21 10:26:39;;;;;;;0.98;0.40;;;22.90;58.50;;;;;;4935944;28;20166;-74
2022/06/21 10:29:43;;;;;;;0.50;0.35;;;23.10;58.30;;;;;;4938383;28;20059;-74
2022/06/21 10:32:27;;;;;;;0.30;0.30;;;23.20;57.80;;;;;;4946931;28;20109;-73
2022/06/21 10:35:10;;;;;;;0.93;0.32;;;23.40;57.40;;;;;;4975361;28;20039;-74
2022/06/21 10:38:02;;;;;;;0.55;0.40;;;23.50;57.20;;;;;;4959396;28;20117;-74
2022/06/21 10:40:55;;;;;;;0.95;0.30;;;23.60;56.90;;;;;;4959672;28;20042;-74
2022/06/21 10:47:08;;;;;;;0.30;0.30;;;24.00;56.20;;;;;;4889194;29;20049;-73
2022/06/21 10:50:09;;;;;;;0.45;0.35;;;24.10;56.00;;;;;;4898980;29;20078;-73
2022/06/21 10:52:45;;;;;;;;;;;24.20;55.50;;;;;;4898889;29;20040;-73
2022/06/21 11:06:02;;;;;;;0.35;0.30;;;24.40;54.90;;;;;;4821689;29;20065;-74
2022/06/21 11:13:11;;;;;;;0.40;0.20;;;24.40;54.90;;;;;;4893916;29;20572;-74
2022/06/21 11:16:00;;;;;;;0.25;0.20;;;24.60;54.90;;;;;;4837846;29;20557;-73
2022/06/21 11:18:58;;;;;;;0.20;0.20;;;24.70;54.70;;;;;;4839273;29;20599;-73
2022/06/21 11:22:18;;;;;;;0.20;0.20;;;24.60;54.60;;;;;;4827119;29;20049;-75
2022/06/21 11:25:11;;;;;;;0.10;0.10;;;24.50;54.80;;;;;;4805966;29;20141;-74
2022/06/21 11:27:51;;;;;;;0.20;0.20;;;24.40;55.00;;;;;;4821421;29;20121;-74
2022/06/21 11:45:14;;;;;;;0.30;0.30;;;24.30;54.80;;;;;;4735254;30;20067;-75
2022/06/21 11:48:06;;;;;;;0.30;0.30;;;24.20;54.50;;;;;;4818880;29;20129;-76
2022/06/21 11:50:50;;;;;;;0.25;0.25;;;24.20;54.30;;;;;;4863388;29;20064;-75
2022/06/21 11:54:16;;;;;;;0.20;0.20;;;24.10;54.30;;;;;;4868489;29;20072;-75
2022/06/21 11:57:05;;;;;;;0.20;0.20;;;24.10;54.20;;;;;;4860295;29;20053;-75
2022/06/21 12:02:58;;;;;;;0.30;0.30;;;24.10;54.00;;;;;;4855462;29;20528;-75
2022/06/21 12:05:57;;;;;;;0.40;0.35;;;23.90;54.20;;;;;;4823768;29;20083;-75
2022/06/21 12:09:00;;;;;;;0.20;0.20;;;23.80;54.20;;;;;;4841300;29;20114;-76
2022/06/21 12:15:45;;;;;;;0.20;0.20;;;23.80;54.10;;;;;;4784333;29;20097;-74
2022/06/21 12:18:16;;;;;;;0.20;0.20;;;23.80;54.10;;;;;;4802749;29;20042;-75
2022/06/21 12:20:53;;;;;;;0.35;0.35;;;23.60;54.20;;;;;;4748616;30;20055;-76
2022/06/21 12:23:52;;;;;;;0.20;0.20;;;23.70;54.40;;;;;;4754846;30;20417;-76
2022/06/21 12:26:33;;;;;;;0.30;0.30;;;23.60;54.40;;;;;;4756288;30;20517;-76
2022/06/21 12:32:52;;;;;;;0.20;0.20;;;23.60;54.30;;;;;;4715725;30;20107;-74
2022/06/21 12:35:43;;;;;;;0.28;0.20;;;23.70;54.30;;;;;;4708901;30;20075;-74
2022/06/21 12:38:11;;;;;;;;;;;23.70;53.80;;;;;;4712732;30;20088;-74
2022/06/21 12:40:42;;;;;;;0.20;0.20;;;23.80;54.40;;;;;;4713233;30;19911;-74
2022/06/21 12:43:29;;;;;;;0.20;0.20;;;23.90;53.70;;;;;;4728525;30;20073;-74
2022/06/21 12:46:06;;;;;;;0.30;0.30;;;23.90;53.50;;;;;;4710688;30;20104;-72
2022/06/21 12:49:02;;;;;;;0.30;0.30;;;24.00;53.30;;;;;;4711436;30;20098;-73
2022/06/21 12:51:50;;;;;;;0.15;0.15;;;24.00;52.90;;;;;;4737160;30;20470;-73
2022/06/21 12:54:39;;;;;;;0.20;0.20;;;24.10;52.80;;;;;;4763987;30;20127;-73
2022/06/21 12:57:23;;;;;;;0.32;0.20;;;24.10;52.60;;;;;;4778320;29;21030;-73
2022/06/21 13:00:13;;;;;;;0.20;0.20;;;24.00;52.60;;;;;;4783846;29;20050;-73
2022/06/21 13:03:10;;;;;;;0.20;0.20;;;24.10;52.50;;;;;;4818897;29;20070;-73
2022/06/21 13:05:53;;;;;;;0.30;0.30;;;24.00;52.50;;;;;;4875870;28;20051;-73
2022/06/21 13:09:00;;;;;;;0.20;0.20;;;24.00;52.40;;;;;;4946676;28;20038;-73
2022/06/21 13:11:53;;;;;;;0.38;0.30;;;23.90;52.20;;;;;;4957090;28;20129;-74
2022/06/21 13:22:05;;;;;;;0.10;0.10;;;24.00;52.00;;;;;;4847284;29;20087;-74
2022/06/21 13:25:03;;;;;;;0.28;0.28;;;24.00;52.00;;;;;;4824767;29;20053;-73
2022/06/21 13:45:53;;;;;;;0.75;0.30;;;24.10;51.50;;;;;;4733271;30;20128;-73
2022/06/21 13:48:29;;;;;;;0.20;0.20;;;23.90;51.30;;;;;;4752978;30;20104;-73
2022/06/21 13:51:26;;;;;;;0.52;0.30;;;24.00;51.60;;;;;;4767612;30;20147;-73
2022/06/21 13:54:44;;;;;;;0.20;0.20;;;24.00;51.40;;;;;;4768223;30;20161;-73
2022/06/21 13:57:40;;;;;;;0.63;0.30;;;23.90;51.40;;;;;;4776444;29;20052;-74
2022/06/21 14:00:07;;;;;;;0.20;0.20;;;23.90;51.60;;;;;;4785624;29;20096;-73
2022/06/21 14:02:59;;;;;;;0.30;0.30;;;23.90;51.60;;;;;;4821818;29;20503;-72
2022/06/21 14:05:40;;;;;;;0.20;0.20;;;23.90;51.40;;;;;;4844089;29;20101;-72
2022/06/21 14:08:25;;;;;;;0.20;0.20;;;24.00;51.20;;;;;;4828639;29;20577;-72
2022/06/21 14:10:56;;;;;;;0.22;0.22;;;24.00;51.10;;;;;;4947398;28;20053;-73
2022/06/21 14:13:38;;;;;;;0.30;0.30;;;24.10;51.10;;;;;;4995231;28;20525;-74
2022/06/21 14:16:31;;;;;;;0.28;0.28;;;24.10;51.10;;;;;;4996394;28;20030;-75
2022/06/21 14:26:38;;;;;;;0.20;0.20;;;24.10;50.90;;;;;;4933378;29;20462;-75
2022/06/21 14:29:49;;;;;;;0.38;0.30;;;24.00;51.10;;;;;;4917226;29;20075;-75
2022/06/21 14:32:36;;;;;;;0.30;0.30;;;24.00;51.10;;;;;;4919350;29;20047;-74
2022/06/21 14:35:17;;;;;;;0.65;0.28;;;23.90;51.20;;;;;;4933635;29;20086;-72
2022/06/21 14:38:01;;;;;;;0.30;0.30;;;23.80;51.50;;;;;;4933573;29;20175;-72
2022/06/21 14:40:40;;;;;;;0.38;0.20;;;23.80;51.60;;;;;;4933634;29;20511;-74
2022/06/21 14:43:33;;;;;;;0.28;0.28;;;23.80;51.40;;;;;;4918081;29;20062;-75
2022/06/21 14:46:21;;;;;;;0.20;0.20;;;23.80;51.40;;;;;;4915242;29;20127;-75
2022/06/21 15:00:19;;;;;;;0.20;0.20;;;23.40;51.50;;;;;;4819355;29;20464;-74
2022/06/21 15:03:14;;;;;;;0.20;0.20;;;23.30;51.50;;;;;;4805717;29;20177;-73
2022/06/21 15:13:44;;;;;;;0.52;0.40;;;23.30;51.70;;;;;;4765904;30;20510;-75
2022/06/21 15:16:16;;;;;;;0.28;0.28;;;23.20;51.60;;;;;;4747974;30;20054;-73
2022/06/21 15:18:52;;;;;;;0.20;0.20;;;23.20;51.60;;;;;;4734526;30;20134;-72
2022/06/21 15:24:33;;;;;;;0.20;0.20;;;23.30;51.50;;;;;;4733553;30;20055;-77
2022/06/21 15:27:14;;;;;;;0.30;0.30;;;23.20;51.40;;;;;;4720673;30;20048;-75
2022/06/21 15:30:10;;;;;;;0.30;0.30;;;23.20;51.60;;;;;;4740515;30;20047;-74
2022/06/21 15:33:08;;;;;;;0.20;0.20;;;23.20;51.80;;;;;;4778154;30;20052;-75
2022/06/21 15:39:47;;;;;;;0.25;0.25;;;23.20;51.70;;;;;;4729762;30;20055;-74
2022/06/21 15:42:31;;;;;;;0.20;0.20;;;23.10;51.80;;;;;;4669902;30;20049;-74
2022/06/21 15:45:12;;;;;;;0.15;0.15;;;22.90;51.90;;;;;;4726898;30;20045;-74
2022/06/21 15:51:12;;;;;;;0.30;0.30;;;23.00;52.10;;;;;;4729580;30;20518;-74
2022/06/21 15:54:11;;;;;;;0.20;0.20;;;22.90;52.00;;;;;;4762366;30;20516;-74
2022/06/21 15:57:13;;;;;;;0.52;0.30;;;22.90;52.00;;;;;;4766746;30;20059;-74
2022/06/21 16:00:03;;;;;;;0.45;0.38;;;22.90;52.10;;;;;;4775554;29;20051;-74
2022/06/21 16:02:41;;;;;;;0.40;0.30;;;22.80;52.10;;;;;;4818541;29;20097;-74
2022/06/21 16:05:26;;;;;;;0.30;0.30;;;22.80;52.20;;;;;;4856457;29;20053;-74
2022/06/21 16:07:57;;;;;;;0.30;0.30;;;22.80;52.20;;;;;;4841583;29;20074;-74
2022/06/21 16:17:12;;;;;;;0.25;0.20;;;22.70;52.20;;;;;;4837906;29;19912;-75
2022/06/21 16:34:35;;;;;;;0.28;0.28;;;22.50;52.50;;;;;;4893827;29;20041;-75
2022/06/21 16:37:14;;;;;;;0.10;0.10;;;22.50;52.30;;;;;;4896609;29;20077;-75
2022/06/21 16:39:50;;;;;;;0.22;0.20;;;22.50;52.30;;;;;;4897903;29;20040;-75
2022/06/21 16:45:31;;;;;;;0.20;0.20;;;22.40;52.50;;;;;;4895803;29;20067;-75
2022/06/21 16:48:05;;;;;;;0.47;0.20;;;22.40;52.50;;;;;;4897674;29;20083;-75
2022/06/21 16:50:59;;;;;;;0.30;0.30;;;22.30;52.60;;;;;;4866437;29;20507;-75
2022/06/21 16:53:30;;;;;;;0.20;0.20;;;22.30;52.70;;;;;;4886195;29;20059;-75
2022/06/21 16:56:01;;;;;;;1.45;0.20;;;22.20;52.80;;;;;;4897670;29;20040;-75
2022/06/21 16:58:38;;;;;;;0.30;0.30;;;22.20;52.80;;;;;;4881959;29;20630;-75
2022/06/21 17:01:04;;;;;;;0.30;0.30;;;22.20;52.90;;;;;;4921683;29;20104;-74
2022/06/21 17:04:02;;;;;;;0.47;0.30;;;22.10;53.10;;;;;;4935188;29;20115;-74
2022/06/21 17:06:43;;;;;;;0.20;0.20;;;22.00;53.10;;;;;;4935344;29;20095;-75
2022/06/21 17:09:14;;;;;;;0.30;0.30;;;22.00;53.10;;;;;;4935190;29;20540;-75
2022/06/21 17:11:56;;;;;;;0.30;0.30;;;22.00;53.10;;;;;;4975815;28;20033;-75
2022/06/21 17:14:29;;;;;;;0.20;0.20;;;22.00;53.00;;;;;;5015065;28;20124;-75
2022/06/21 17:17:07;;;;;;;0.20;0.20;;;22.00;53.60;;;;;;5014479;28;20034;-75
2022/06/21 17:19:45;;;;;;;0.25;0.25;;;22.00;53.00;;;;;;5015201;28;20038;-75
2022/06/21 17:22:23;;;;;;;0.20;0.20;;;21.90;53.10;;;;;;4996803;28;20405;-75
2022/06/21 17:24:52;;;;;;;0.15;0.15;;;21.80;53.10;;;;;;4981430;28;20069;-75